Time;durP1;ratioP1;P1;durP2;ratioP2;P2;SDS_P1;SDS_P2;PMS_P1;PMS_P2;Temp;Humidity;BMP_temperature;BMP_pressure;BME280_temperature;BME280_humidity;BME280_pressure;Samples;Min_cycle;Max_cycle;Signal;HPM_P1;HPM_P2
2023/05/14 00:06:15;;;;;;;25.70;14.30;;;;;;;7.84;61.21;99110.80;437365;1251;111855;-43
2023/05/14 00:16:18;;;;;;;22.20;12.50;;;;;;;7.69;61.24;99109.34;437437;1251;107389;-43
2023/05/14 00:26:23;;;;;;;22.70;12.70;;;;;;;7.88;61.77;99109.29;437568;1250;99284;-41
2023/05/14 00:36:27;;;;;;;23.30;14.20;;;;;;;8.24;61.98;99107.46;437322;1251;108259;-43
2023/05/14 00:46:31;;;;;;;23.80;15.00;;;;;;;8.53;62.23;99104.23;437390;1250;99275;-43
2023/05/14 00:56:35;;;;;;;27.80;15.60;;;;;;;8.52;61.92;99104.04;437559;1251;110796;-42
2023/05/14 01:06:42;;;;;;;24.30;14.70;;;;;;;8.22;61.90;99102.80;437451;1247;107164;-43
2023/05/14 01:16:55;;;;;;;23.10;15.00;;;;;;;7.93;61.91;99095.12;438032;1247;98066;31
2023/05/14 01:27:01;;;;;;;38.10;20.80;;;;;;;7.66;62.03;99089.64;435852;1252;108995;-43
2023/05/14 01:37:05;;;;;;;47.10;23.60;;;;;;;7.35;62.37;99087.35;435680;1253;99263;-43
2023/05/14 01:47:09;;;;;;;44.60;22.40;;;;;;;7.15;62.70;99080.80;435930;1250;110356;-40
2023/05/14 01:57:13;;;;;;;48.90;25.60;;;;;;;7.12;63.23;99078.04;435934;1253;107194;-41
2023/05/14 02:07:16;;;;;;;30.90;17.60;;;;;;;7.08;63.58;99082.91;435920;1250;99217;-41
2023/05/14 02:17:20;;;;;;;20.70;12.60;;;;;;;7.46;64.00;99078.14;435880;1252;107962;-41
2023/05/14 02:27:24;;;;;;;17.90;12.40;;;;;;;7.92;63.90;99079.89;435985;1252;99630;-41
2023/05/14 02:37:27;;;;;;;27.60;15.40;;;;;;;8.32;64.01;99071.60;435875;1247;110808;-42
2023/05/14 02:57:39;;;;;;;;;;;;;;;8.56;63.83;99058.70;435852;1253;99154;-42
2023/05/14 03:07:43;;;;;;;32.50;19.80;;;;;;;8.52;63.92;99050.27;436022;1252;108253;-41
2023/05/14 03:17:46;;;;;;;28.80;18.00;;;;;;;8.49;63.83;99047.31;435941;1247;99700;-42
2023/05/14 03:27:50;;;;;;;27.00;18.40;;;;;;;8.58;63.74;99038.86;436104;1251;112893;-41
2023/05/14 03:48:01;;;;;;;31.50;16.70;;;;;;;10.41;62.75;99034.34;435720;1253;430399;-43
2023/05/14 04:08:13;;;;;;;25.20;16.10;;;;;;;12.67;60.95;99025.65;435876;1250;99690;-44
2023/05/14 04:18:17;;;;;;;17.10;13.30;;;;;;;13.72;59.63;99020.90;435944;1250;112703;-44
2023/05/14 04:28:21;;;;;;;17.30;12.00;;;;;;;14.64;58.59;99014.15;435751;1252;108465;-43
2023/05/14 04:38:24;;;;;;;13.40;9.80;;;;;;;15.32;57.34;99004.30;435908;1250;99230;-42
2023/05/14 04:48:28;;;;;;;13.60;10.20;;;;;;;15.86;56.57;98998.53;435789;1253;108265;-44
2023/05/14 04:58:32;;;;;;;10.40;8.00;;;;;;;16.32;55.44;98989.62;436409;1250;97980;-43
2023/05/14 05:08:38;;;;;;;12.00;7.90;;;;;;;16.39;54.46;98981.39;436203;1247;112011;-42
2023/05/14 05:18:43;;;;;;;14.30;10.00;;;;;;;16.69;53.46;98988.60;435854;1253;107220;-44
2023/05/14 05:28:47;;;;;;;20.20;12.10;;;;;;;16.75;53.26;98987.30;435940;1248;99346;-42
2023/05/14 05:38:51;;;;;;;22.30;11.10;;;;;;;17.00;52.51;98979.17;435857;1253;109395;-41
2023/05/14 05:48:55;;;;;;;16.40;9.40;;;;;;;17.37;52.01;98979.20;435900;1250;99614;-42
2023/05/14 05:58:59;;;;;;;11.30;6.70;;;;;;;17.39;50.65;98975.36;435874;1252;110822;-41
2023/05/14 06:19:12;;;;;;;3.60;2.80;;;;;;;17.51;49.16;98972.12;436060;1247;99359;-42
2023/05/14 06:29:16;;;;;;;5.50;3.00;;;;;;;17.65;48.02;98968.92;435753;1251;108203;-42
2023/05/14 06:39:20;;;;;;;5.80;3.00;;;;;;;17.64;47.12;98967.20;435987;1250;99696;-44
2023/05/14 06:49:24;;;;;;;2.50;2.30;;;;;;;17.68;46.82;98969.19;435853;1247;112121;-42
2023/05/14 06:59:28;;;;;;;10.40;6.30;;;;;;;17.90;46.85;98962.35;436014;1247;107569;-43
2023/05/14 07:09:31;;;;;;;3.50;2.70;;;;;;;17.63;46.79;98945.23;435833;1253;97968;-42
2023/05/14 07:19:35;;;;;;;2.20;1.80;;;;;;;17.96;46.58;98922.59;435759;1252;107909;-43
2023/05/14 07:29:39;;;;;;;2.20;2.10;;;;;;;17.86;45.69;98926.62;435764;1260;99842;-44
2023/05/14 07:39:47;;;;;;;3.10;2.10;;;;;;;17.42;45.96;98928.47;435696;1249;112171;-42
2023/05/14 07:49:53;;;;;;;5.40;2.80;;;;;;;17.06;46.62;98931.64;436066;1247;107818;-43
2023/05/14 07:59:57;;;;;;;6.50;3.10;;;;;;;17.27;46.97;98926.38;435828;1254;99221;-43
2023/05/14 08:10:01;;;;;;;3.50;3.20;;;;;;;17.18;47.02;98924.55;435935;1252;108538;-43
2023/05/14 08:20:08;;;;;;;2.90;2.60;;;;;;;17.36;47.36;98926.19;435800;1250;99705;-43
2023/05/14 08:30:15;;;;;;;7.40;3.00;;;;;;;17.49;47.25;98927.80;435912;1253;110629;-43
2023/05/14 08:40:19;;;;;;;4.00;2.30;;;;;;;17.86;46.79;98921.11;435602;1253;107138;-42
2023/05/14 08:50:24;;;;;;;5.40;2.20;;;;;;;18.17;46.35;98904.02;436103;1252;98110;-42
2023/05/14 09:00:29;;;;;;;2.80;2.30;;;;;;;18.47;45.79;98897.33;435860;1253;108068;-42
2023/05/14 09:10:39;;;;;;;2.20;2.10;;;;;;;18.48;45.48;98894.60;435934;1252;97989;-43
2023/05/14 09:20:43;;;;;;;2.80;2.30;;;;;;;18.44;45.38;98884.61;436087;1254;111258;-43
2023/05/14 09:30:50;;;;;;;2.00;1.90;;;;;;;18.82;45.38;98876.48;436085;1249;108546;-43
2023/05/14 09:40:53;;;;;;;3.80;2.10;;;;;;;19.23;44.40;98861.48;435794;1248;99846;-43
2023/05/14 09:50:58;;;;;;;2.10;1.90;;;;;;;19.70;43.54;98851.86;435740;1253;108577;-42
2023/05/14 10:01:07;;;;;;;2.20;1.90;;;;;;;19.82;42.86;98848.86;435831;1248;97949;-41
2023/05/14 10:11:14;;;;;;;2.20;1.70;;;;;;;19.99;42.13;98843.03;435689;1254;111285;-41
2023/05/14 10:41:49;;;;;;;2.90;2.40;;;;;;;20.15;41.31;98804.13;435768;1250;108189;-44
2023/05/14 10:51:57;;;;;;;3.30;2.00;;;;;;;20.40;40.82;98788.69;436212;1247;99246;-42
2023/05/14 11:02:04;;;;;;;2.70;2.40;;;;;;;20.71;40.40;98771.21;435742;1253;111694;-42
2023/05/14 11:12:08;;;;;;;3.70;2.40;;;;;;;20.67;40.14;98762.99;436138;1253;107858;-43
2023/05/14 11:22:14;;;;;;;3.00;2.50;;;;;;;20.70;39.91;98749.47;436643;1253;99224;-43
2023/05/14 11:32:22;;;;;;;6.70;2.50;;;;;;;21.17;39.59;98742.92;436260;1253;108422;-41
2023/05/14 11:42:29;;;;;;;3.30;2.80;;;;;;;21.21;38.88;98741.89;436215;1253;98058;-43
2023/05/14 11:52:37;;;;;;;40.30;4.00;;;;;;;21.65;38.99;98729.52;436159;1260;111617;-42
2023/05/14 12:02:41;;;;;;;3.30;2.30;;;;;;;21.30;38.04;98718.17;436253;1253;108554;-42
2023/05/14 12:12:46;;;;;;;4.30;2.60;;;;;;;21.11;37.89;98723.78;435776;1251;99240;-43
2023/05/14 12:22:49;;;;;;;6.00;2.70;;;;;;;20.68;37.96;98705.16;435971;1251;108602;-43
2023/05/14 12:32:53;;;;;;;3.00;2.10;;;;;;;20.45;38.06;98687.91;435879;1260;99246;-43
2023/05/14 12:42:56;;;;;;;5.40;2.70;;;;;;;20.65;38.43;98678.24;435990;1251;111802;-43
2023/05/14 12:53:00;;;;;;;5.00;1.60;;;;;;;20.79;38.45;98666.23;436002;1251;107540;-42
2023/05/14 13:03:08;;;;;;;2.10;1.90;;;;;;;20.45;38.38;98658.98;436178;1248;98854;-43
2023/05/14 13:13:14;;;;;;;2.20;1.10;;;;;;;20.47;38.83;98660.15;435932;1254;108524;-41
2023/05/14 13:23:18;;;;;;;4.50;1.50;;;;;;;20.39;39.49;98653.02;435937;1247;99253;-43
2023/05/14 13:33:22;;;;;;;3.10;1.40;;;;;;;20.27;40.03;98641.59;436061;1251;111168;-43
2023/05/14 13:43:25;;;;;;;2.10;1.60;;;;;;;20.35;40.71;98629.05;436036;1251;107598;-42
2023/05/14 13:53:29;;;;;;;3.40;1.90;;;;;;;20.29;40.78;98626.46;435864;1251;98824;-43
2023/05/14 14:03:33;;;;;;;3.10;2.10;;;;;;;20.12;41.13;98618.73;435892;1247;107472;-42
2023/05/14 14:13:38;;;;;;;3.50;2.50;;;;;;;20.15;41.50;98603.49;436060;1248;98694;-43
2023/05/14 14:23:41;;;;;;;3.60;1.70;;;;;;;20.13;41.70;98590.68;435919;1251;111529;-42
2023/05/14 14:33:45;;;;;;;3.70;1.50;;;;;;;20.15;42.15;98571.92;436078;1247;107813;-43
2023/05/14 14:43:49;;;;;;;2.60;1.70;;;;;;;20.02;41.65;98577.44;436011;1248;99218;-42
2023/05/14 14:53:53;;;;;;;2.70;1.80;;;;;;;20.10;41.92;98565.77;435883;1253;108714;-43
2023/05/14 15:03:57;;;;;;;4.20;1.90;;;;;;;20.13;41.77;98542.11;436058;1254;99313;-41
2023/05/14 15:14:01;;;;;;;5.10;2.10;;;;;;;20.11;41.84;98538.16;435945;1251;111674;-43
2023/05/14 15:24:10;;;;;;;2.70;1.40;;;;;;;19.89;41.35;98519.99;435887;1247;108163;-44
2023/05/14 15:34:15;;;;;;;1.80;1.50;;;;;;;19.80;41.85;98501.77;435893;1247;97940;-42
2023/05/14 15:44:19;;;;;;;4.20;1.60;;;;;;;19.62;42.08;98482.77;435707;1251;382043;-42
2023/05/14 15:54:26;;;;;;;4.40;1.90;;;;;;;19.49;42.16;98487.70;435952;1248;99291;-42
2023/05/14 16:04:30;;;;;;;;;;;;;;;19.32;42.49;98485.58;435959;1254;112319;-41
2023/05/14 16:14:33;;;;;;;2.20;1.90;;;;;;;19.16;42.83;98473.91;435968;1254;111005;-43
2023/05/14 16:24:37;;;;;;;4.30;2.00;;;;;;;19.02;43.07;98472.80;436126;1252;98012;-45
2023/05/14 16:44:45;;;;;;;3.70;1.90;;;;;;;18.75;43.85;98445.98;436268;1252;99124;-41
2023/05/14 16:54:49;;;;;;;3.90;1.90;;;;;;;18.59;44.18;98434.59;436231;1247;110869;-43
2023/05/14 17:04:54;;;;;;;3.80;2.20;;;;;;;18.48;44.73;98434.77;436146;1248;108404;-43
2023/05/14 17:14:58;;;;;;;8.30;3.70;;;;;;;18.34;44.86;98433.54;436019;1251;99237;-42
2023/05/14 17:25:02;;;;;;;3.40;2.30;;;;;;;18.19;45.17;98427.39;436094;1250;107405;-43
2023/05/14 17:35:05;;;;;;;2.80;2.60;;;;;;;18.04;45.55;98416.23;436143;1247;98151;-43
2023/05/14 17:45:19;;;;;;;5.60;2.30;;;;;;;17.88;45.83;98416.52;436188;1247;110247;-43
2023/05/14 17:55:23;;;;;;;3.30;2.90;;;;;;;17.75;46.05;98408.40;435984;1252;108586;-42
2023/05/14 18:05:28;;;;;;;5.30;2.80;;;;;;;17.64;46.34;98402.59;435903;1250;98072;-42
2023/05/14 18:15:32;;;;;;;10.60;4.00;;;;;;;17.50;46.66;98393.27;436161;1253;108274;-42
2023/05/14 18:25:38;;;;;;;11.40;4.70;;;;;;;17.31;47.08;98391.20;436093;1250;98811;-42
2023/05/14 18:45:47;;;;;;;44.70;6.20;;;;;;;16.93;48.02;98382.90;436146;1253;107545;-42
2023/05/14 18:55:50;;;;;;;12.20;4.80;;;;;;;16.76;48.46;98379.80;436032;1253;99240;-43
2023/05/14 19:05:54;;;;;;;7.50;5.30;;;;;;;16.57;49.22;98370.08;436202;1252;108368;-41
2023/05/14 19:15:58;;;;;;;12.00;6.30;;;;;;;16.39;49.72;98358.80;435877;1249;98307;-42
2023/05/14 19:36:05;;;;;;;13.80;9.50;;;;;;;16.13;50.58;98341.46;436083;1252;108172;-41
2023/05/14 19:46:09;;;;;;;10.10;6.00;;;;;;;16.02;51.17;98341.75;436125;1247;99229;-42
2023/05/14 19:56:14;;;;;;;16.40;10.30;;;;;;;15.91;51.65;98379.41;436149;1253;109505;-42
2023/05/14 20:06:18;;;;;;;12.00;6.10;;;;;;;15.83;52.82;98369.85;435880;1253;99221;-43
2023/05/14 20:16:22;;;;;;;10.50;5.60;;;;;;;15.66;53.37;98369.61;436113;1247;111821;-42
2023/05/14 20:26:27;;;;;;;9.40;4.30;;;;;;;15.47;54.25;98381.87;436139;1248;107933;-41
2023/05/14 20:36:31;;;;;;;4.70;4.00;;;;;;;15.07;55.50;98389.25;436006;1249;99317;-42
2023/05/14 20:46:34;;;;;;;4.40;3.60;;;;;;;14.76;56.86;98397.06;435879;1254;107848;-42
2023/05/14 20:56:38;;;;;;;4.60;3.90;;;;;;;14.73;57.84;98391.21;435944;1253;99122;-42
2023/05/14 21:06:42;;;;;;;9.80;4.80;;;;;;;14.59;58.88;98380.36;436122;1253;112168;-41
2023/05/14 21:16:47;;;;;;;8.40;5.70;;;;;;;14.36;59.80;98363.93;435726;1253;108097;-42
2023/05/14 21:26:51;;;;;;;8.00;5.80;;;;;;;14.13;61.09;98353.06;435996;1250;98485;-43
2023/05/14 21:36:57;;;;;;;9.40;6.30;;;;;;;14.04;62.20;98342.71;436178;1247;108525;-43
2023/05/14 21:47:00;;;;;;;7.10;5.50;;;;;;;13.93;62.97;98318.09;436190;1253;99224;-43
2023/05/14 21:57:03;;;;;;;9.40;5.80;;;;;;;13.82;63.87;98302.21;436360;1251;111527;-43
2023/05/14 22:07:07;;;;;;;7.50;5.50;;;;;;;13.77;64.60;98299.38;436086;1251;108096;-44
2023/05/14 22:17:12;;;;;;;8.80;6.50;;;;;;;13.75;65.35;98290.21;436062;1252;99236;-43
2023/05/14 22:27:15;;;;;;;9.90;5.80;;;;;;;13.68;65.85;98272.10;436295;1247;107210;-44
2023/05/14 22:37:19;;;;;;;10.80;6.50;;;;;;;13.58;66.25;98242.30;436025;1250;99278;-43
2023/05/14 22:57:27;;;;;;;8.40;6.50;;;;;;;13.07;67.82;98197.05;435971;1253;108281;-44
2023/05/14 23:07:32;;;;;;;6.20;5.60;;;;;;;13.02;68.17;98179.77;435843;1253;99266;-44
2023/05/14 23:17:39;;;;;;;13.80;7.60;;;;;;;12.96;68.89;98161.31;435848;1247;110130;-45
2023/05/14 23:27:48;;;;;;;8.30;6.90;;;;;;;13.06;69.52;98155.85;436170;1252;99253;-44
2023/05/14 23:37:54;;;;;;;10.70;7.80;;;;;;;13.18;69.80;98109.79;436077;1252;111152;-44
2023/05/14 23:48:02;;;;;;;10.20;7.90;;;;;;;13.10;69.99;98079.54;435835;1250;106678;-44
2023/05/14 23:58:05;;;;;;;10.30;7.80;;;;;;;13.10;70.34;98069.98;435976;1253;99473;-44
